createdAt,value
2023-05-18T00:00:49.451Z,27.33
2023-05-18T00:01:49.487Z,26.93
2023-05-18T00:02:49.671Z,26.72
2023-05-18T00:03:49.619Z,25.91
2023-05-18T00:04:49.726Z,26.41
2023-05-18T00:05:49.630Z,26.91
2023-05-18T00:06:49.662Z,25.28
2023-05-18T00:07:49.703Z,26.33
2023-05-18T00:08:49.721Z,25.58
2023-05-18T00:09:49.804Z,26.58
2023-05-18T00:10:49.806Z,26.26
2023-05-18T00:11:49.847Z,26.40
2023-05-18T00:12:49.864Z,26.56
2023-05-18T00:13:49.911Z,24.31
2023-05-18T00:14:49.963Z,26.36
2023-05-18T00:15:50.004Z,24.87
2023-05-18T00:16:50.009Z,25.71
2023-05-18T00:17:50.081Z,24.87
2023-05-18T00:18:50.090Z,25.25
2023-05-18T00:19:50.136Z,24.86
2023-05-18T00:20:50.149Z,24.68
2023-05-18T00:21:50.194Z,25.63
2023-05-18T00:22:50.230Z,24.92
2023-05-18T00:23:50.262Z,25.77
2023-05-18T00:24:50.315Z,25.73
2023-05-18T00:25:50.337Z,24.35
2023-05-18T00:26:50.391Z,24.92
2023-05-18T00:27:50.415Z,24.62
2023-05-18T00:28:50.514Z,24.89
2023-05-18T00:29:50.507Z,23.98
2023-05-18T00:30:50.541Z,25.37
2023-05-18T00:31:50.609Z,24.80
2023-05-18T00:32:50.658Z,25.48
2023-05-18T00:33:50.655Z,23.33
2023-05-18T00:34:50.703Z,23.76
2023-05-18T00:35:50.800Z,23.77
2023-05-18T00:36:50.760Z,24.35
2023-05-18T00:37:50.795Z,24.60
2023-05-18T00:38:50.842Z,24.75
2023-05-18T00:39:50.875Z,23.43
2023-05-18T00:40:50.911Z,23.43
2023-05-18T00:41:50.953Z,23.85
2023-05-18T00:42:50.989Z,24.61
2023-05-18T00:43:51.032Z,23.24
2023-05-18T00:44:51.073Z,22.80
2023-05-18T00:45:51.136Z,24.06
2023-05-18T00:46:51.139Z,24.02
2023-05-18T00:47:51.231Z,23.88
2023-05-18T00:48:51.200Z,22.13
2023-05-18T00:49:51.247Z,23.60
2023-05-18T00:50:51.290Z,23.37
2023-05-18T00:51:51.325Z,23.27
2023-05-18T00:52:51.362Z,23.42
2023-05-18T00:53:51.383Z,23.79
2023-05-18T00:54:51.455Z,22.53
2023-05-18T00:55:51.456Z,23.69
2023-05-18T00:56:51.493Z,23.52
2023-05-18T00:57:51.554Z,23.50
2023-05-18T00:58:51.569Z,23.44
2023-05-18T00:59:51.613Z,22.42
2023-05-18T01:00:51.709Z,22.96
2023-05-18T01:01:51.684Z,22.16
2023-05-18T01:02:52.179Z,22.45
2023-05-18T01:03:51.747Z,23.11
2023-05-18T01:04:51.789Z,23.17
2023-05-18T01:05:51.819Z,22.83
2023-05-18T01:06:51.858Z,22.62
2023-05-18T01:07:51.906Z,22.52
2023-05-18T01:08:51.943Z,22.41
2023-05-18T01:09:51.984Z,22.90
2023-05-18T01:10:52.072Z,22.06
2023-05-18T01:11:52.070Z,22.20
2023-05-18T01:12:52.084Z,22.60
2023-05-18T01:13:52.087Z,22.62
2023-05-18T01:14:52.059Z,22.65
2023-05-18T01:15:52.059Z,22.42
2023-05-18T01:16:52.055Z,21.99
2023-05-18T01:17:52.100Z,22.25
2023-05-18T01:18:52.035Z,22.59
2023-05-18T01:19:52.045Z,22.45
2023-05-18T01:20:52.006Z,22.47
2023-05-18T01:21:51.963Z,21.55
2023-05-18T01:22:51.970Z,22.20
2023-05-18T01:23:51.948Z,22.05
2023-05-18T01:24:51.943Z,22.09
2023-05-18T01:25:51.926Z,22.09
2023-05-18T01:26:51.904Z,22.07
2023-05-18T01:27:51.911Z,22.32
2023-05-18T01:28:51.892Z,22.39
2023-05-18T01:29:51.876Z,22.33
2023-05-18T01:30:51.894Z,22.15
2023-05-18T01:31:51.857Z,21.94
2023-05-18T01:32:51.883Z,21.19
2023-05-18T01:33:51.827Z,21.45
2023-05-18T01:34:51.814Z,21.68
2023-05-18T01:35:51.837Z,20.28
2023-05-18T01:36:51.786Z,21.84
2023-05-18T01:37:51.972Z,21.51
2023-05-18T01:38:51.858Z,21.80
2023-05-18T01:39:51.924Z,21.50
2023-05-18T01:40:51.993Z,20.55
2023-05-18T01:41:51.987Z,21.34
2023-05-18T01:42:51.995Z,21.51
2023-05-18T01:43:52.033Z,21.01
2023-05-18T01:44:52.093Z,20.86
2023-05-18T01:45:52.066Z,20.91
2023-05-18T01:46:52.117Z,21.00
2023-05-18T01:47:52.086Z,21.13
2023-05-18T01:48:52.035Z,20.88
2023-05-18T01:49:52.015Z,21.56
2023-05-18T01:50:52.010Z,20.91
2023-05-18T01:51:51.994Z,20.73
2023-05-18T01:52:51.988Z,21.19
2023-05-18T01:53:51.999Z,20.79
2023-05-18T01:54:51.965Z,19.51
2023-05-18T01:55:51.935Z,21.14
2023-05-18T01:56:51.923Z,21.00
2023-05-18T01:57:51.958Z,20.05
2023-05-18T01:58:51.990Z,19.49
2023-05-18T01:59:52.042Z,19.87
2023-05-18T02:00:52.075Z,20.90
2023-05-18T02:01:52.181Z,20.56
2023-05-18T02:02:53.129Z,20.61
2023-05-18T02:03:52.218Z,20.66
2023-05-18T02:04:52.040Z,20.64
2023-05-18T02:05:52.046Z,20.15
2023-05-18T02:06:52.009Z,20.21
2023-05-18T02:07:52.015Z,20.50
2023-05-18T02:08:51.983Z,20.59
2023-05-18T02:09:51.994Z,20.20
2023-05-18T02:10:51.969Z,19.95
2023-05-18T02:11:51.964Z,20.15
2023-05-18T02:12:51.944Z,19.83
2023-05-18T02:13:51.951Z,18.90
2023-05-18T02:14:51.933Z,20.48
2023-05-18T02:15:52.031Z,20.41
2023-05-18T02:16:52.003Z,19.82
2023-05-18T02:17:52.077Z,19.12
2023-05-18T02:18:52.107Z,19.65
2023-05-18T02:19:52.121Z,19.85
2023-05-18T02:20:52.141Z,19.93
2023-05-18T02:21:52.171Z,19.53
2023-05-18T02:22:52.208Z,19.25
2023-05-18T02:23:52.250Z,18.61
2023-05-18T02:24:52.289Z,19.77
2023-05-18T02:25:52.333Z,19.43
2023-05-18T02:26:52.355Z,19.43
2023-05-18T02:27:52.397Z,19.18
2023-05-18T02:28:52.441Z,19.27
2023-05-18T02:29:52.472Z,19.52
2023-05-18T02:30:52.466Z,19.53
2023-05-18T02:31:52.499Z,19.16
2023-05-18T02:32:52.492Z,19.54
2023-05-18T02:33:52.437Z,19.17
2023-05-18T02:34:52.406Z,19.31
2023-05-18T02:35:52.391Z,19.26
2023-05-18T02:36:52.379Z,19.68
2023-05-18T02:37:52.378Z,19.62
2023-05-18T02:38:52.364Z,18.31
2023-05-18T02:39:52.356Z,19.17
2023-05-18T02:40:52.350Z,18.37
2023-05-18T02:41:52.346Z,19.01
2023-05-18T02:42:52.367Z,18.78
2023-05-18T02:43:52.424Z,18.62
2023-05-18T02:44:52.461Z,18.44
2023-05-18T02:45:52.513Z,18.46
2023-05-18T02:46:52.529Z,17.83
2023-05-18T02:47:52.670Z,16.87
2023-05-18T02:48:52.638Z,16.68
2023-05-18T02:49:52.652Z,15.66
2023-05-18T02:50:52.713Z,12.58
2023-05-18T02:51:52.720Z,10.85
2023-05-18T02:52:52.780Z,9.74
2023-05-18T02:53:52.792Z,8.84
2023-05-18T02:54:52.825Z,8.40
2023-05-18T02:55:52.861Z,7.51
2023-05-18T02:56:52.905Z,6.97
2023-05-18T02:57:52.944Z,6.38
2023-05-18T02:58:52.982Z,5.64
2023-05-18T02:59:53.041Z,5.16
2023-05-18T03:00:53.133Z,4.74
2023-05-18T03:01:53.154Z,4.32
2023-05-18T03:02:53.241Z,4.05
2023-05-18T03:03:53.236Z,3.73
2023-05-18T03:04:53.307Z,3.53
2023-05-18T03:05:53.338Z,3.36
2023-05-18T03:06:53.388Z,3.18
2023-05-18T03:07:53.422Z,3.02
2023-05-18T03:08:53.536Z,2.92
2023-05-18T03:09:53.512Z,2.77
2023-05-18T03:10:53.535Z,2.63
2023-05-18T03:11:53.539Z,2.54
2023-05-18T03:12:53.518Z,2.42
2023-05-18T03:13:53.530Z,2.36
2023-05-18T03:14:53.530Z,2.28
2023-05-18T03:15:53.510Z,2.19
2023-05-18T03:16:53.531Z,2.12
2023-05-18T03:17:53.571Z,2.04
2023-05-18T03:18:53.536Z,2.01
2023-05-18T03:19:53.505Z,1.91
2023-05-18T03:20:53.500Z,1.87
2023-05-18T03:21:53.523Z,1.81
2023-05-18T03:22:53.502Z,1.80
2023-05-18T03:23:53.493Z,1.77
2023-05-18T03:24:53.579Z,1.71
2023-05-18T03:25:53.504Z,1.67
2023-05-18T03:26:53.488Z,1.62
2023-05-18T03:27:53.515Z,1.58
2023-05-18T03:28:53.492Z,1.55
2023-05-18T03:29:53.487Z,1.53
2023-05-18T03:30:53.506Z,1.50
2023-05-18T03:31:53.509Z,1.49
2023-05-18T03:32:53.550Z,1.45
2023-05-18T03:33:53.488Z,1.46
2023-05-18T03:34:53.498Z,1.39
2023-05-18T03:35:53.485Z,1.37
2023-05-18T03:36:53.485Z,1.35
2023-05-18T03:37:53.519Z,1.32
2023-05-18T03:38:53.499Z,1.30
2023-05-18T03:39:53.508Z,1.30
2023-05-18T03:40:53.657Z,1.28
2023-05-18T03:41:53.533Z,1.25
2023-05-18T03:42:53.534Z,1.20
2023-05-18T03:43:53.561Z,1.20
2023-05-18T03:44:53.555Z,1.18
2023-05-18T03:45:53.719Z,1.15
2023-05-18T03:46:53.557Z,1.12
2023-05-18T03:47:53.591Z,1.11
2023-05-18T03:48:53.547Z,1.11
2023-05-18T03:49:53.548Z,1.07
2023-05-18T03:50:53.564Z,1.06
2023-05-18T03:51:53.561Z,1.04
2023-05-18T03:52:53.577Z,1.02
2023-05-18T03:53:53.556Z,1.01
2023-05-18T03:54:53.582Z,0.99
2023-05-18T03:55:53.559Z,0.97
2023-05-18T03:56:53.576Z,0.95
2023-05-18T03:57:53.593Z,0.96
2023-05-18T03:58:53.615Z,0.93
2023-05-18T03:59:53.614Z,0.95
2023-05-18T04:00:53.635Z,0.92
2023-05-18T04:01:53.669Z,0.92
2023-05-18T04:02:53.743Z,0.89
2023-05-18T04:03:53.748Z,0.90
2023-05-18T04:04:53.693Z,0.89
2023-05-18T04:05:53.700Z,0.88
2023-05-18T04:06:53.707Z,0.88
2023-05-18T04:07:53.722Z,0.87
2023-05-18T04:08:53.740Z,0.88
2023-05-18T04:09:53.761Z,0.86
2023-05-18T04:10:53.816Z,0.86
2023-05-18T04:11:53.783Z,0.83
2023-05-18T04:12:53.903Z,0.84
2023-05-18T04:13:53.841Z,0.82
2023-05-18T04:14:53.823Z,0.83
2023-05-18T04:15:53.871Z,0.81
2023-05-18T04:16:53.891Z,0.82
2023-05-18T04:17:53.975Z,0.80
2023-05-18T04:18:53.892Z,0.81
2023-05-18T04:19:53.914Z,0.79
2023-05-18T04:20:53.951Z,0.79
2023-05-18T04:21:53.965Z,0.78
2023-05-18T04:22:53.999Z,0.77
2023-05-18T04:23:54.019Z,0.76
2023-05-18T04:24:54.128Z,0.76
2023-05-18T04:25:54.046Z,0.75
2023-05-18T04:26:54.068Z,0.74
2023-05-18T04:27:54.090Z,0.75
2023-05-18T04:28:54.217Z,0.75
2023-05-18T04:29:54.148Z,0.72
2023-05-18T04:30:54.171Z,0.74
2023-05-18T04:31:54.209Z,0.72
2023-05-18T04:32:54.248Z,0.71
2023-05-18T04:33:54.245Z,0.71
2023-05-18T04:34:54.270Z,0.72
2023-05-18T04:35:54.288Z,0.71
2023-05-18T04:36:54.303Z,0.69
2023-05-18T04:37:54.352Z,0.69
2023-05-18T04:38:54.376Z,0.69
2023-05-18T04:39:54.541Z,0.69
2023-05-18T04:40:54.426Z,0.67
2023-05-18T04:41:54.468Z,0.67
2023-05-18T04:42:54.476Z,0.67
2023-05-18T04:43:54.508Z,0.68
2023-05-18T04:44:54.533Z,0.65
2023-05-18T04:45:54.594Z,0.65
2023-05-18T04:46:54.585Z,0.63
2023-05-18T04:47:54.775Z,0.61
2023-05-18T04:48:54.677Z,0.60
2023-05-18T04:49:54.694Z,0.60
2023-05-18T04:50:54.718Z,0.61
2023-05-18T04:51:54.736Z,0.59
2023-05-18T04:52:54.778Z,0.59
2023-05-18T04:53:54.802Z,0.58
2023-05-18T04:54:54.859Z,0.57
2023-05-18T04:55:54.898Z,0.57
2023-05-18T04:56:54.943Z,0.56
2023-05-18T04:57:54.965Z,0.55
2023-05-18T04:58:54.993Z,0.55
2023-05-18T04:59:55.033Z,0.55
2023-05-18T05:00:55.107Z,0.55
2023-05-18T05:01:55.140Z,0.55
2023-05-18T05:02:55.237Z,0.54
2023-05-18T05:03:56.921Z,0.53
2023-05-18T05:04:55.157Z,0.53
2023-05-18T05:05:55.157Z,0.52
2023-05-18T05:06:55.152Z,0.52
2023-05-18T05:07:55.147Z,0.52
2023-05-18T05:08:55.149Z,0.51
2023-05-18T05:09:55.139Z,0.52
2023-05-18T05:10:55.135Z,0.51
2023-05-18T05:11:55.114Z,0.51
2023-05-18T05:12:55.115Z,0.50
2023-05-18T05:13:55.112Z,0.51
2023-05-18T05:14:55.110Z,0.51
2023-05-18T05:15:55.130Z,0.50
2023-05-18T05:16:55.100Z,0.51
2023-05-18T05:17:55.153Z,0.51
2023-05-18T05:18:55.116Z,0.51
2023-05-18T05:19:55.114Z,0.51
2023-05-18T05:20:55.089Z,0.51
2023-05-18T05:21:55.091Z,0.52
2023-05-18T05:22:55.077Z,0.52
2023-05-18T05:23:55.069Z,0.52
2023-05-18T05:24:55.059Z,0.51
2023-05-18T05:25:55.051Z,0.51
2023-05-18T05:26:55.061Z,0.51
2023-05-18T05:27:55.035Z,0.52
2023-05-18T05:28:55.032Z,0.51
2023-05-18T05:29:55.026Z,0.50
2023-05-18T05:30:55.021Z,0.53
2023-05-18T05:31:55.068Z,0.51
2023-05-18T05:32:55.032Z,0.50
2023-05-18T05:33:54.988Z,0.50
2023-05-18T05:34:54.997Z,0.50
2023-05-18T05:35:54.978Z,0.50
2023-05-18T05:36:55.033Z,0.49
2023-05-18T05:37:54.962Z,0.48
2023-05-18T05:38:54.965Z,0.48
2023-05-18T05:39:54.956Z,0.51
2023-05-18T05:40:54.960Z,0.52
2023-05-18T05:41:54.954Z,0.50
2023-05-18T05:42:54.944Z,0.51
2023-05-18T05:43:54.928Z,0.51
2023-05-18T05:44:54.914Z,0.51
2023-05-18T05:45:54.914Z,0.50
2023-05-18T05:46:54.938Z,0.50
2023-05-18T05:47:54.945Z,0.51
2023-05-18T05:48:54.911Z,0.53
2023-05-18T05:49:54.937Z,0.51
2023-05-18T05:50:54.999Z,0.50
2023-05-18T05:51:55.060Z,0.51
2023-05-18T05:52:55.058Z,0.51
2023-05-18T05:53:55.086Z,0.50
2023-05-18T05:54:55.168Z,0.52
2023-05-18T05:55:55.156Z,0.50
2023-05-18T05:56:55.199Z,0.51
2023-05-18T05:57:55.280Z,0.52
2023-05-18T05:58:55.279Z,0.52
2023-05-18T05:59:55.355Z,0.51
2023-05-18T06:00:55.361Z,0.50
2023-05-18T06:01:55.454Z,0.50
2023-05-18T06:02:55.440Z,0.50
2023-05-18T06:03:55.480Z,0.51
2023-05-18T06:04:55.491Z,0.50
2023-05-18T06:05:55.518Z,0.51
2023-05-18T06:06:55.560Z,0.50
2023-05-18T06:07:55.608Z,0.52
2023-05-18T06:08:55.649Z,0.50
2023-05-18T06:09:55.705Z,0.51
2023-05-18T06:10:55.740Z,0.53
2023-05-18T06:11:55.777Z,0.53
2023-05-18T06:12:55.811Z,0.53
2023-05-18T06:13:55.853Z,0.52
2023-05-18T06:14:55.895Z,0.52
2023-05-18T06:15:55.939Z,0.53
2023-05-18T06:16:56.081Z,0.51
2023-05-18T06:17:56.084Z,0.53
2023-05-18T06:18:56.165Z,0.52
2023-05-18T06:19:56.177Z,0.51
2023-05-18T06:20:56.302Z,0.50
2023-05-18T06:21:56.246Z,0.51
2023-05-18T06:22:56.312Z,0.50
2023-05-18T06:23:56.325Z,0.50
2023-05-18T06:24:56.389Z,0.50
2023-05-18T06:25:56.438Z,0.50
2023-05-18T06:26:56.482Z,0.50
2023-05-18T06:27:56.529Z,0.50
2023-05-18T06:28:56.556Z,0.50
2023-05-18T06:29:56.603Z,0.52
2023-05-18T06:30:56.646Z,0.51
2023-05-18T06:31:56.730Z,0.51
2023-05-18T06:32:56.782Z,0.51
2023-05-18T06:33:56.784Z,0.51
2023-05-18T06:34:56.840Z,0.52
2023-05-18T06:35:56.884Z,0.52
2023-05-18T06:36:56.930Z,0.53
2023-05-18T06:37:56.978Z,0.52
2023-05-18T06:38:57.008Z,0.52
2023-05-18T06:39:57.051Z,0.51
2023-05-18T06:40:57.087Z,0.50
2023-05-18T06:41:57.134Z,0.51
2023-05-18T06:42:57.104Z,0.51
2023-05-18T06:43:57.112Z,0.50
2023-05-18T06:44:57.115Z,0.50
2023-05-18T06:45:57.138Z,0.51
2023-05-18T06:46:57.092Z,0.52
2023-05-18T06:47:57.158Z,0.52
2023-05-18T06:48:57.083Z,0.53
2023-05-18T06:49:57.087Z,0.53
2023-05-18T06:50:57.069Z,0.54
2023-05-18T06:51:57.073Z,0.54
2023-05-18T06:52:57.161Z,0.53
2023-05-18T06:53:57.064Z,0.51
2023-05-18T06:54:57.054Z,0.50
2023-05-18T06:55:57.048Z,0.50
2023-05-18T06:56:57.080Z,0.51
2023-05-18T06:57:57.105Z,0.50
2023-05-18T06:58:58.925Z,0.50
2023-05-18T06:59:57.126Z,0.50
2023-05-18T07:00:57.115Z,0.50
2023-05-18T07:01:57.357Z,0.50
2023-05-18T07:02:57.125Z,0.51
2023-05-18T07:03:57.187Z,0.51
2023-05-18T07:04:57.140Z,0.51
2023-05-18T07:05:57.102Z,0.50
2023-05-18T07:06:57.103Z,0.50
2023-05-18T07:07:57.171Z,0.50
2023-05-18T07:08:57.081Z,0.51
2023-05-18T07:09:57.085Z,0.50
2023-05-18T07:10:57.077Z,0.50
2023-05-18T07:11:57.082Z,0.50
2023-05-18T07:12:57.078Z,0.51
2023-05-18T07:13:57.100Z,0.51
2023-05-18T07:14:57.070Z,0.50
2023-05-18T07:15:57.076Z,0.50
2023-05-18T07:16:57.055Z,0.50
2023-05-18T07:17:57.128Z,0.51
2023-05-18T07:18:57.077Z,0.52
2023-05-18T07:19:57.039Z,0.51
2023-05-18T07:20:57.035Z,0.51
2023-05-18T07:21:57.005Z,0.52
2023-05-18T07:22:57.015Z,0.51
2023-05-18T07:23:57.015Z,0.52
2023-05-18T07:24:56.995Z,0.52
2023-05-18T07:25:56.997Z,0.52
2023-05-18T07:26:58.861Z,0.52
2023-05-18T07:27:56.984Z,0.52
2023-05-18T07:28:56.978Z,0.51
2023-05-18T07:29:56.961Z,0.52
2023-05-18T07:30:56.953Z,0.53
2023-05-18T07:31:57.022Z,0.53
2023-05-18T07:32:56.997Z,0.53
2023-05-18T07:33:57.014Z,0.52
2023-05-18T07:34:56.997Z,0.53
2023-05-18T07:35:56.981Z,0.53
2023-05-18T07:36:56.985Z,0.53
2023-05-18T07:37:57.016Z,0.53
2023-05-18T07:38:57.003Z,0.54
2023-05-18T07:39:56.992Z,0.55
2023-05-18T07:40:56.994Z,0.54
2023-05-18T07:41:56.992Z,0.55
2023-05-18T07:42:56.999Z,0.53
2023-05-18T07:43:57.031Z,0.53
2023-05-18T07:44:56.984Z,0.53
2023-05-18T07:45:57.000Z,0.53
2023-05-18T07:46:57.100Z,0.53
2023-05-18T07:47:57.084Z,0.52
2023-05-18T07:48:56.985Z,0.52
2023-05-18T07:49:56.993Z,0.51
2023-05-18T07:50:56.977Z,0.51
2023-05-18T07:51:56.963Z,0.51
2023-05-18T07:52:56.954Z,0.51
2023-05-18T07:53:56.957Z,0.50
2023-05-18T07:54:56.990Z,0.52
2023-05-18T07:55:56.954Z,0.52
2023-05-18T07:56:59.734Z,0.51
2023-05-18T07:57:56.934Z,0.51
2023-05-18T07:58:56.950Z,0.51
2023-05-18T07:59:56.952Z,0.51
2023-05-18T08:00:56.920Z,0.49
2023-05-18T08:01:56.965Z,0.48
2023-05-18T08:02:57.029Z,0.51
2023-05-18T08:03:57.001Z,0.50
2023-05-18T08:04:56.943Z,0.51
2023-05-18T08:05:56.916Z,0.51
2023-05-18T08:06:56.926Z,0.50
2023-05-18T08:07:56.928Z,0.51
2023-05-18T08:08:56.892Z,0.51
2023-05-18T08:09:56.942Z,0.52
2023-05-18T08:10:56.911Z,0.51
2023-05-18T08:11:56.889Z,0.50
2023-05-18T08:12:56.988Z,0.50
2023-05-18T08:13:56.898Z,0.52
2023-05-18T08:14:56.910Z,0.52
2023-05-18T08:16:10.408Z,0.52
2023-05-18T08:16:57.991Z,0.52
2023-05-18T08:17:56.914Z,0.52
2023-05-18T08:18:56.947Z,0.53
2023-05-18T08:19:56.946Z,0.52
2023-05-18T08:20:56.908Z,0.52
2023-05-18T08:21:56.912Z,0.52
2023-05-18T08:22:56.896Z,0.52
2023-05-18T08:23:56.896Z,0.51
2023-05-18T08:24:56.886Z,0.51
2023-05-18T08:25:56.872Z,0.51
2023-05-18T08:26:56.913Z,0.51
2023-05-18T08:27:56.866Z,0.50
2023-05-18T08:28:56.857Z,0.51
2023-05-18T08:29:56.903Z,0.50
2023-05-18T08:30:56.872Z,0.51
2023-05-18T08:31:56.903Z,0.50
2023-05-18T08:32:56.897Z,0.51
2023-05-18T08:33:56.925Z,0.50
2023-05-18T08:34:56.946Z,0.50
2023-05-18T08:35:57.009Z,0.50
2023-05-18T08:36:57.014Z,0.50
2023-05-18T08:37:57.031Z,0.50
2023-05-18T08:38:57.126Z,0.50
2023-05-18T08:39:57.112Z,0.51
2023-05-18T08:40:57.095Z,0.51
2023-05-18T08:41:57.148Z,0.50
2023-05-18T08:42:57.085Z,0.50
2023-05-18T08:43:57.110Z,0.49
2023-05-18T08:44:57.094Z,0.48
2023-05-18T08:45:57.095Z,0.49
2023-05-18T08:46:57.122Z,0.48
2023-05-18T08:47:57.262Z,0.46
2023-05-18T08:48:57.143Z,0.46
2023-05-18T08:49:57.092Z,0.50
2023-05-18T08:50:57.125Z,0.53
2023-05-18T08:51:57.109Z,0.58
2023-05-18T08:52:57.127Z,0.63
2023-05-18T08:53:57.094Z,0.65
2023-05-18T08:54:57.093Z,0.72
2023-05-18T08:55:57.094Z,0.80
2023-05-18T08:56:57.102Z,0.84
2023-05-18T08:57:57.104Z,0.90
2023-05-18T08:58:57.090Z,1.01
2023-05-18T08:59:57.082Z,1.10
2023-05-18T09:00:57.061Z,1.20
2023-05-18T09:01:57.108Z,1.26
2023-05-18T09:02:57.130Z,1.37
2023-05-18T09:03:57.055Z,1.43
2023-05-18T09:04:57.119Z,1.51
2023-05-18T09:05:57.050Z,1.61
2023-05-18T09:06:57.105Z,1.70
2023-05-18T09:07:57.035Z,1.87
2023-05-18T09:08:57.035Z,1.97
2023-05-18T09:09:57.055Z,2.04
2023-05-18T09:10:57.016Z,2.12
2023-05-18T09:11:57.021Z,2.13
2023-05-18T09:12:57.025Z,2.16
2023-05-18T09:13:57.024Z,2.24
2023-05-18T09:14:57.037Z,2.14
2023-05-18T09:15:57.063Z,2.20
2023-05-18T09:16:56.980Z,2.36
2023-05-18T09:17:57.012Z,2.62
2023-05-18T09:18:56.997Z,3.08
2023-05-18T09:19:56.959Z,3.27
2023-05-18T09:20:56.942Z,3.45
2023-05-18T09:21:56.926Z,3.59
2023-05-18T09:22:56.952Z,3.76
2023-05-18T09:23:57.032Z,3.86
2023-05-18T09:24:57.109Z,4.05
2023-05-18T09:25:57.151Z,4.22
2023-05-18T09:26:57.188Z,4.47
2023-05-18T09:27:57.261Z,4.60
2023-05-18T09:28:57.304Z,4.75
2023-05-18T09:29:57.376Z,4.93
2023-05-18T09:30:57.414Z,5.06
2023-05-18T09:31:57.532Z,5.17
2023-05-18T09:32:57.568Z,5.35
2023-05-18T09:33:57.549Z,5.37
2023-05-18T09:34:57.524Z,5.41
2023-05-18T09:35:57.516Z,5.53
2023-05-18T09:36:57.493Z,5.76
2023-05-18T09:37:57.498Z,6.14
2023-05-18T09:38:57.465Z,6.38
2023-05-18T09:39:57.478Z,6.54
2023-05-18T09:40:57.465Z,6.41
2023-05-18T09:41:57.446Z,6.96
2023-05-18T09:42:57.425Z,7.03
2023-05-18T09:43:57.440Z,7.09
2023-05-18T09:44:57.526Z,7.21
2023-05-18T09:45:57.446Z,7.53
2023-05-18T09:46:57.489Z,7.29
2023-05-18T09:47:57.573Z,7.34
2023-05-18T09:48:57.534Z,7.36
2023-05-18T09:49:57.621Z,8.22
2023-05-18T09:50:57.534Z,8.23
2023-05-18T09:51:57.542Z,8.05
2023-05-18T09:52:57.502Z,8.07
2023-05-18T09:53:57.505Z,8.22
2023-05-18T09:54:57.542Z,8.22
2023-05-18T09:55:57.464Z,8.70
2023-05-18T09:57:09.491Z,8.67
2023-05-18T09:57:58.435Z,8.70
2023-05-18T09:58:57.416Z,8.76
2023-05-18T09:59:57.405Z,8.75
2023-05-18T10:00:57.424Z,9.08
2023-05-18T10:01:57.369Z,9.40
2023-05-18T10:02:57.379Z,9.33
2023-05-18T10:03:57.380Z,9.42
2023-05-18T10:04:57.343Z,9.90
2023-05-18T10:05:57.311Z,9.57
2023-05-18T10:06:57.309Z,9.71
2023-05-18T10:07:57.288Z,9.96
2023-05-18T10:08:57.253Z,10.22
2023-05-18T10:09:57.241Z,9.85
2023-05-18T10:10:57.242Z,10.23
2023-05-18T10:11:57.209Z,10.61
2023-05-18T10:12:57.187Z,9.98
2023-05-18T10:13:57.196Z,10.48
2023-05-18T10:14:57.160Z,10.46
2023-05-18T10:15:57.153Z,10.44
2023-05-18T10:17:07.223Z,10.56
2023-05-18T10:17:58.134Z,10.59
2023-05-18T10:18:57.171Z,10.65
2023-05-18T10:19:57.086Z,10.78
2023-05-18T10:20:59.776Z,11.05
2023-05-18T10:21:57.053Z,11.49
2023-05-18T10:22:57.045Z,11.62
2023-05-18T10:23:57.032Z,11.32
2023-05-18T10:24:56.986Z,11.32
2023-05-18T10:25:56.994Z,11.62
2023-05-18T10:26:57.724Z,11.55
2023-05-18T10:27:56.955Z,11.79
2023-05-18T10:28:56.907Z,11.71
2023-05-18T10:29:56.913Z,11.91
2023-05-18T10:30:56.943Z,11.91
2023-05-18T10:31:56.858Z,12.14
2023-05-18T10:32:56.880Z,11.88
2023-05-18T10:33:56.826Z,12.09
2023-05-18T10:34:56.805Z,12.12
2023-05-18T10:35:56.786Z,12.27
2023-05-18T10:36:56.742Z,12.36
2023-05-18T10:37:56.720Z,12.39
2023-05-18T10:38:56.707Z,12.31
2023-05-18T10:39:56.678Z,12.18
2023-05-18T10:40:56.655Z,12.28
2023-05-18T10:41:56.616Z,12.24
2023-05-18T10:42:56.587Z,12.27
2023-05-18T10:43:56.578Z,12.27
2023-05-18T10:44:56.566Z,12.62
2023-05-18T10:45:56.629Z,12.53
2023-05-18T10:46:56.671Z,12.60
2023-05-18T10:47:56.513Z,12.48
2023-05-18T10:48:56.484Z,12.50
2023-05-18T10:49:56.470Z,12.75
2023-05-18T10:50:56.448Z,12.80
2023-05-18T10:51:56.398Z,12.79
2023-05-18T10:52:56.381Z,12.87
2023-05-18T10:53:56.507Z,13.04
2023-05-18T10:54:56.416Z,12.84
2023-05-18T10:55:56.482Z,12.76
2023-05-18T10:56:56.455Z,12.99
2023-05-18T10:57:56.506Z,13.09
2023-05-18T10:58:56.510Z,12.90
2023-05-18T10:59:56.564Z,13.19
2023-05-18T11:00:56.588Z,13.04
2023-05-18T11:01:56.627Z,12.97
2023-05-18T11:02:56.669Z,13.50
2023-05-18T11:03:56.653Z,13.28
2023-05-18T11:04:56.689Z,13.59
2023-05-18T11:05:56.692Z,13.27
2023-05-18T11:06:56.696Z,13.20
2023-05-18T11:07:56.736Z,13.10
2023-05-18T11:08:56.775Z,13.29
2023-05-18T11:09:56.794Z,13.36
2023-05-18T11:10:56.833Z,13.58
2023-05-18T11:11:56.850Z,13.77
2023-05-18T11:12:56.884Z,13.53
2023-05-18T11:13:56.913Z,13.33
2023-05-18T11:14:56.953Z,13.44
2023-05-18T11:15:57.007Z,13.78
2023-05-18T11:16:57.006Z,13.62
2023-05-18T11:17:57.128Z,13.34
2023-05-18T11:18:57.110Z,13.76
2023-05-18T11:19:56.993Z,13.78
2023-05-18T11:20:57.024Z,13.83
2023-05-18T11:21:56.964Z,13.89
2023-05-18T11:22:56.930Z,13.99
2023-05-18T11:23:56.904Z,14.14
2023-05-18T11:24:56.889Z,13.72
2023-05-18T11:25:56.882Z,14.19
2023-05-18T11:26:56.846Z,14.00
2023-05-18T11:27:56.796Z,14.19
2023-05-18T11:28:56.788Z,14.20
2023-05-18T11:30:11.780Z,14.24
2023-05-18T11:30:57.736Z,14.22
2023-05-18T11:31:56.736Z,14.24
2023-05-18T11:32:56.753Z,14.31
2023-05-18T11:33:56.649Z,14.34
2023-05-18T11:34:56.616Z,14.89
2023-05-18T11:35:56.594Z,14.82
2023-05-18T11:36:56.561Z,14.87
2023-05-18T11:37:56.555Z,14.58
2023-05-18T11:38:56.513Z,14.58
2023-05-18T11:40:00.103Z,14.90
2023-05-18T11:40:57.457Z,14.92
2023-05-18T11:41:56.429Z,14.91
2023-05-18T11:42:56.376Z,14.99
2023-05-18T11:43:56.365Z,15.30
2023-05-18T11:44:56.330Z,15.19
2023-05-18T11:45:58.973Z,14.72
2023-05-18T11:46:56.347Z,15.05
2023-05-18T11:47:56.296Z,15.13
2023-05-18T11:48:56.249Z,15.12
2023-05-18T11:49:56.181Z,15.10
2023-05-18T11:50:56.149Z,14.97
2023-05-18T11:51:58.463Z,14.92
2023-05-18T11:52:56.072Z,14.94
2023-05-18T11:53:56.040Z,15.01
2023-05-18T11:54:56.024Z,15.14
2023-05-18T11:55:56.014Z,15.31
2023-05-18T11:56:55.974Z,15.64
2023-05-18T11:57:55.934Z,15.35
2023-05-18T11:58:55.921Z,15.43
2023-05-18T11:59:55.886Z,15.49
2023-05-18T12:00:55.900Z,15.35
2023-05-18T12:01:55.945Z,15.32
2023-05-18T12:02:55.860Z,15.62
2023-05-18T12:03:55.846Z,15.57
2023-05-18T12:04:55.755Z,15.17
2023-05-18T12:05:55.740Z,15.59
2023-05-18T12:06:55.694Z,15.46
2023-05-18T12:07:55.675Z,15.66
2023-05-18T12:08:55.667Z,15.69
2023-05-18T12:09:55.613Z,15.67
2023-05-18T12:10:55.618Z,15.70
2023-05-18T12:11:55.591Z,15.64
2023-05-18T12:12:55.546Z,15.94
2023-05-18T12:13:55.495Z,15.86
2023-05-18T12:14:55.476Z,15.57
2023-05-18T12:15:56.870Z,16.13
2023-05-18T12:16:55.432Z,16.22
2023-05-18T12:17:55.428Z,16.02
2023-05-18T12:18:55.383Z,15.67
2023-05-18T12:19:55.333Z,15.68
2023-05-18T12:20:55.307Z,15.87
2023-05-18T12:21:56.752Z,15.98
2023-05-18T12:22:55.258Z,16.01
2023-05-18T12:23:55.259Z,16.02
2023-05-18T12:24:55.192Z,16.10
2023-05-18T12:25:55.225Z,16.12
2023-05-18T12:26:55.143Z,16.40
2023-05-18T12:27:55.128Z,16.34
2023-05-18T12:28:55.121Z,16.65
2023-05-18T12:29:55.057Z,16.15
2023-05-18T12:30:55.049Z,16.01
2023-05-18T12:31:55.003Z,15.94
2023-05-18T12:32:55.051Z,16.76
2023-05-18T12:33:56.894Z,16.77
2023-05-18T12:34:54.917Z,16.78
2023-05-18T12:35:54.886Z,16.73
2023-05-18T12:36:54.873Z,16.80
2023-05-18T12:37:54.879Z,16.87
2023-05-18T12:38:54.794Z,16.74
2023-05-18T12:39:54.834Z,16.32
2023-05-18T12:40:54.830Z,16.14
2023-05-18T12:41:54.710Z,16.45
2023-05-18T12:42:54.695Z,16.33
2023-05-18T12:43:54.653Z,16.55
2023-05-18T12:44:54.624Z,16.32
2023-05-18T12:45:54.678Z,16.38
2023-05-18T12:46:54.673Z,16.27
2023-05-18T12:47:55.003Z,16.30
2023-05-18T12:48:54.557Z,16.37
2023-05-18T12:49:54.502Z,16.42
2023-05-18T12:50:54.484Z,16.51
2023-05-18T12:51:54.448Z,16.49
2023-05-18T12:52:54.430Z,16.33
2023-05-18T12:53:54.392Z,16.37
2023-05-18T12:54:54.365Z,16.43
2023-05-18T12:55:54.336Z,16.54
2023-05-18T12:56:54.292Z,16.54
2023-05-18T12:57:54.261Z,16.46
2023-05-18T12:58:54.245Z,16.43
2023-05-18T12:59:54.213Z,16.42
2023-05-18T13:00:54.232Z,16.87
2023-05-18T13:01:54.205Z,16.31
2023-05-18T13:02:54.208Z,16.54
2023-05-18T13:03:54.173Z,16.19
2023-05-18T13:04:54.059Z,16.60
2023-05-18T13:05:54.050Z,16.66
2023-05-18T13:06:54.017Z,16.30